sensor_id;sensor_type;location;lat;lon;timestamp;P1;durP1;ratioP1;P2;durP2;ratioP2
30743;SDS011;17486;46.738;7.622;2022-12-24T00:00:31;1.83;;;1.30;;
30743;SDS011;17486;46.738;7.622;2022-12-24T00:02:57;1.85;;;1.33;;
30743;SDS011;17486;46.738;7.622;2022-12-24T00:05:22;3.30;;;1.10;;
30743;SDS011;17486;46.738;7.622;2022-12-24T00:07:48;0.90;;;0.90;;
30743;SDS011;17486;46.738;7.622;2022-12-24T00:10:13;1.92;;;0.93;;
30743;SDS011;17486;46.738;7.622;2022-12-24T00:12:38;0.95;;;0.95;;
30743;SDS011;17486;46.738;7.622;2022-12-24T00:15:04;0.85;;;0.82;;
30743;SDS011;17486;46.738;7.622;2022-12-24T00:17:30;0.95;;;0.93;;
30743;SDS011;17486;46.738;7.622;2022-12-24T00:19:56;1.27;;;0.75;;
30743;SDS011;17486;46.738;7.622;2022-12-24T00:22:21;1.55;;;0.90;;
30743;SDS011;17486;46.738;7.622;2022-12-24T00:24:47;3.10;;;1.27;;
30743;SDS011;17486;46.738;7.622;2022-12-24T00:27:12;1.10;;;0.90;;
30743;SDS011;17486;46.738;7.622;2022-12-24T00:29:38;1.52;;;1.08;;
30743;SDS011;17486;46.738;7.622;2022-12-24T00:32:03;1.52;;;1.30;;
30743;SDS011;17486;46.738;7.622;2022-12-24T00:34:32;1.73;;;1.40;;
30743;SDS011;17486;46.738;7.622;2022-12-24T00:36:58;1.70;;;1.00;;
30743;SDS011;17486;46.738;7.622;2022-12-24T00:39:23;1.10;;;1.00;;
30743;SDS011;17486;46.738;7.622;2022-12-24T00:41:49;2.17;;;1.17;;
30743;SDS011;17486;46.738;7.622;2022-12-24T00:44:14;1.45;;;1.33;;
30743;SDS011;17486;46.738;7.622;2022-12-24T00:46:40;4.00;;;1.63;;
30743;SDS011;17486;46.738;7.622;2022-12-24T00:49:06;1.40;;;1.30;;
30743;SDS011;17486;46.738;7.622;2022-12-24T00:51:32;2.83;;;1.20;;
30743;SDS011;17486;46.738;7.622;2022-12-24T00:53:59;3.03;;;1.10;;
30743;SDS011;17486;46.738;7.622;2022-12-24T00:56:24;3.10;;;1.45;;
30743;SDS011;17486;46.738;7.622;2022-12-24T00:58:50;3.72;;;1.50;;
30743;SDS011;17486;46.738;7.622;2022-12-24T01:01:16;3.20;;;1.48;;
30743;SDS011;17486;46.738;7.622;2022-12-24T01:03:42;3.22;;;1.23;;
30743;SDS011;17486;46.738;7.622;2022-12-24T01:06:12;2.50;;;1.60;;
30743;SDS011;17486;46.738;7.622;2022-12-24T01:08:40;1.60;;;1.13;;
30743;SDS011;17486;46.738;7.622;2022-12-24T01:11:07;1.92;;;1.30;;
30743;SDS011;17486;46.738;7.622;2022-12-24T01:13:33;1.20;;;1.10;;
30743;SDS011;17486;46.738;7.622;2022-12-24T01:15:58;1.30;;;0.90;;
30743;SDS011;17486;46.738;7.622;2022-12-24T01:18:24;2.80;;;1.27;;
30743;SDS011;17486;46.738;7.622;2022-12-24T01:20:57;0.80;;;0.80;;
30743;SDS011;17486;46.738;7.622;2022-12-24T01:23:27;2.95;;;0.85;;
30743;SDS011;17486;46.738;7.622;2022-12-24T01:25:54;1.02;;;0.93;;
30743;SDS011;17486;46.738;7.622;2022-12-24T01:28:20;1.40;;;0.70;;
30743;SDS011;17486;46.738;7.622;2022-12-24T01:30:46;0.80;;;0.80;;
30743;SDS011;17486;46.738;7.622;2022-12-24T01:33:12;1.08;;;0.90;;
30743;SDS011;17486;46.738;7.622;2022-12-24T01:35:39;1.50;;;0.77;;
30743;SDS011;17486;46.738;7.622;2022-12-24T01:38:05;0.75;;;0.70;;
30743;SDS011;17486;46.738;7.622;2022-12-24T01:40:31;1.40;;;0.70;;
30743;SDS011;17486;46.738;7.622;2022-12-24T01:43:19;1.00;;;0.70;;
30743;SDS011;17486;46.738;7.622;2022-12-24T01:45:49;0.57;;;0.57;;
30743;SDS011;17486;46.738;7.622;2022-12-24T01:51:01;0.88;;;0.65;;
30743;SDS011;17486;46.738;7.622;2022-12-24T01:53:32;1.13;;;0.77;;
30743;SDS011;17486;46.738;7.622;2022-12-24T01:56:00;0.88;;;0.65;;
30743;SDS011;17486;46.738;7.622;2022-12-24T01:58:26;0.80;;;0.73;;
30743;SDS011;17486;46.738;7.622;2022-12-24T02:00:52;1.02;;;0.70;;
30743;SDS011;17486;46.738;7.622;2022-12-24T02:03:17;1.83;;;1.10;;
30743;SDS011;17486;46.738;7.622;2022-12-24T02:05:46;1.65;;;0.90;;
30743;SDS011;17486;46.738;7.622;2022-12-24T02:08:13;1.38;;;1.20;;
30743;SDS011;17486;46.738;7.622;2022-12-24T02:10:40;1.63;;;0.90;;
30743;SDS011;17486;46.738;7.622;2022-12-24T02:13:05;1.15;;;1.05;;
30743;SDS011;17486;46.738;7.622;2022-12-24T02:15:38;2.63;;;1.20;;
30743;SDS011;17486;46.738;7.622;2022-12-24T02:18:08;1.48;;;1.02;;
30743;SDS011;17486;46.738;7.622;2022-12-24T02:24:07;1.30;;;0.95;;
30743;SDS011;17486;46.738;7.622;2022-12-24T02:31:49;1.30;;;0.70;;
30743;SDS011;17486;46.738;7.622;2022-12-24T02:36:57;1.42;;;0.80;;
30743;SDS011;17486;46.738;7.622;2022-12-24T02:39:33;0.57;;;0.55;;
30743;SDS011;17486;46.738;7.622;2022-12-24T02:42:05;0.63;;;0.63;;
30743;SDS011;17486;46.738;7.622;2022-12-24T02:45:15;1.13;;;0.82;;
30743;SDS011;17486;46.738;7.622;2022-12-24T02:49:52;0.95;;;0.80;;
30743;SDS011;17486;46.738;7.622;2022-12-24T02:52:30;0.80;;;0.80;;
30743;SDS011;17486;46.738;7.622;2022-12-24T02:54:57;1.00;;;0.73;;
30743;SDS011;17486;46.738;7.622;2022-12-24T02:57:32;1.00;;;0.80;;
30743;SDS011;17486;46.738;7.622;2022-12-24T03:00:13;1.55;;;1.00;;
30743;SDS011;17486;46.738;7.622;2022-12-24T03:05:51;2.15;;;0.90;;
30743;SDS011;17486;46.738;7.622;2022-12-24T03:08:30;1.67;;;1.35;;
30743;SDS011;17486;46.738;7.622;2022-12-24T03:11:16;2.42;;;1.40;;
30743;SDS011;17486;46.738;7.622;2022-12-24T03:13:42;1.55;;;0.98;;
30743;SDS011;17486;46.738;7.622;2022-12-24T03:16:10;1.40;;;1.30;;
30743;SDS011;17486;46.738;7.622;2022-12-24T03:18:39;1.63;;;0.90;;
30743;SDS011;17486;46.738;7.622;2022-12-24T03:23:53;0.90;;;0.90;;
30743;SDS011;17486;46.738;7.622;2022-12-24T03:26:20;4.10;;;1.10;;
30743;SDS011;17486;46.738;7.622;2022-12-24T03:28:46;1.00;;;0.95;;
30743;SDS011;17486;46.738;7.622;2022-12-24T03:31:12;1.13;;;1.08;;
30743;SDS011;17486;46.738;7.622;2022-12-24T03:33:38;1.23;;;1.15;;
30743;SDS011;17486;46.738;7.622;2022-12-24T03:36:04;1.33;;;1.23;;
30743;SDS011;17486;46.738;7.622;2022-12-24T03:38:30;1.17;;;1.08;;
30743;SDS011;17486;46.738;7.622;2022-12-24T03:40:56;1.63;;;1.10;;
30743;SDS011;17486;46.738;7.622;2022-12-24T03:43:22;1.80;;;1.30;;
30743;SDS011;17486;46.738;7.622;2022-12-24T03:45:47;1.20;;;1.10;;
30743;SDS011;17486;46.738;7.622;2022-12-24T03:48:12;1.58;;;1.20;;
30743;SDS011;17486;46.738;7.622;2022-12-24T03:50:38;1.48;;;1.30;;
30743;SDS011;17486;46.738;7.622;2022-12-24T03:53:03;1.88;;;1.15;;
30743;SDS011;17486;46.738;7.622;2022-12-24T03:55:29;1.95;;;1.00;;
30743;SDS011;17486;46.738;7.622;2022-12-24T03:57:54;1.08;;;0.90;;
30743;SDS011;17486;46.738;7.622;2022-12-24T04:00:19;1.35;;;0.98;;
30743;SDS011;17486;46.738;7.622;2022-12-24T04:02:45;2.58;;;0.90;;
30743;SDS011;17486;46.738;7.622;2022-12-24T04:05:14;1.15;;;0.90;;
30743;SDS011;17486;46.738;7.622;2022-12-24T04:07:42;1.55;;;1.00;;
30743;SDS011;17486;46.738;7.622;2022-12-24T04:10:08;2.83;;;1.30;;
30743;SDS011;17486;46.738;7.622;2022-12-24T04:12:34;1.88;;;1.77;;
30743;SDS011;17486;46.738;7.622;2022-12-24T04:15:00;2.80;;;2.33;;
30743;SDS011;17486;46.738;7.622;2022-12-24T04:17:25;2.47;;;2.28;;
30743;SDS011;17486;46.738;7.622;2022-12-24T04:19:50;1.70;;;1.60;;
30743;SDS011;17486;46.738;7.622;2022-12-24T04:22:16;1.25;;;1.10;;
30743;SDS011;17486;46.738;7.622;2022-12-24T04:24:42;1.25;;;0.80;;
30743;SDS011;17486;46.738;7.622;2022-12-24T04:27:07;1.23;;;0.77;;
30743;SDS011;17486;46.738;7.622;2022-12-24T04:29:32;0.85;;;0.75;;
30743;SDS011;17486;46.738;7.622;2022-12-24T04:31:58;1.55;;;0.60;;
30743;SDS011;17486;46.738;7.622;2022-12-24T04:34:23;0.70;;;0.70;;
30743;SDS011;17486;46.738;7.622;2022-12-24T04:36:49;2.15;;;0.70;;
30743;SDS011;17486;46.738;7.622;2022-12-24T04:39:14;1.75;;;0.50;;
30743;SDS011;17486;46.738;7.622;2022-12-24T04:41:39;1.08;;;0.52;;
30743;SDS011;17486;46.738;7.622;2022-12-24T04:44:05;1.48;;;0.68;;
30743;SDS011;17486;46.738;7.622;2022-12-24T04:46:30;0.93;;;0.70;;
30743;SDS011;17486;46.738;7.622;2022-12-24T04:48:56;1.40;;;0.80;;
30743;SDS011;17486;46.738;7.622;2022-12-24T04:51:23;1.70;;;0.80;;
30743;SDS011;17486;46.738;7.622;2022-12-24T04:53:49;1.58;;;0.82;;
30743;SDS011;17486;46.738;7.622;2022-12-24T04:56:16;1.58;;;0.88;;
30743;SDS011;17486;46.738;7.622;2022-12-24T04:58:45;2.53;;;0.82;;
30743;SDS011;17486;46.738;7.622;2022-12-24T05:01:12;1.83;;;1.00;;
30743;SDS011;17486;46.738;7.622;2022-12-24T05:03:40;1.08;;;0.75;;
30743;SDS011;17486;46.738;7.622;2022-12-24T05:06:06;1.10;;;0.73;;
30743;SDS011;17486;46.738;7.622;2022-12-24T05:08:34;2.42;;;0.70;;
30743;SDS011;17486;46.738;7.622;2022-12-24T05:11:00;1.42;;;0.73;;
30743;SDS011;17486;46.738;7.622;2022-12-24T05:13:26;1.20;;;0.77;;
30743;SDS011;17486;46.738;7.622;2022-12-24T05:15:52;1.52;;;0.90;;
30743;SDS011;17486;46.738;7.622;2022-12-24T05:18:18;1.83;;;0.90;;
30743;SDS011;17486;46.738;7.622;2022-12-24T05:20:44;1.75;;;0.93;;
30743;SDS011;17486;46.738;7.622;2022-12-24T05:23:20;2.40;;;0.98;;
30743;SDS011;17486;46.738;7.622;2022-12-24T05:26:13;3.55;;;2.92;;
30743;SDS011;17486;46.738;7.622;2022-12-24T05:28:47;5.05;;;3.47;;
30743;SDS011;17486;46.738;7.622;2022-12-24T05:31:16;4.15;;;2.92;;
30743;SDS011;17486;46.738;7.622;2022-12-24T05:33:43;2.80;;;2.25;;
30743;SDS011;17486;46.738;7.622;2022-12-24T05:36:08;1.30;;;1.20;;
30743;SDS011;17486;46.738;7.622;2022-12-24T05:38:34;1.65;;;1.00;;
30743;SDS011;17486;46.738;7.622;2022-12-24T05:40:59;1.35;;;0.70;;
30743;SDS011;17486;46.738;7.622;2022-12-24T05:43:25;1.00;;;0.60;;
30743;SDS011;17486;46.738;7.622;2022-12-24T05:45:51;0.80;;;0.52;;
30743;SDS011;17486;46.738;7.622;2022-12-24T05:48:16;1.02;;;0.65;;
30743;SDS011;17486;46.738;7.622;2022-12-24T05:50:41;2.10;;;0.82;;
30743;SDS011;17486;46.738;7.622;2022-12-24T05:53:07;0.70;;;0.70;;
30743;SDS011;17486;46.738;7.622;2022-12-24T05:55:32;1.48;;;1.02;;
30743;SDS011;17486;46.738;7.622;2022-12-24T05:57:58;1.10;;;0.80;;
30743;SDS011;17486;46.738;7.622;2022-12-24T06:00:24;1.20;;;0.82;;
30743;SDS011;17486;46.738;7.622;2022-12-24T06:02:50;0.77;;;0.77;;
30743;SDS011;17486;46.738;7.622;2022-12-24T06:05:15;1.70;;;0.95;;
30743;SDS011;17486;46.738;7.622;2022-12-24T06:07:41;1.13;;;0.80;;
30743;SDS011;17486;46.738;7.622;2022-12-24T06:10:07;2.00;;;0.70;;
30743;SDS011;17486;46.738;7.622;2022-12-24T06:12:33;1.38;;;0.55;;
30743;SDS011;17486;46.738;7.622;2022-12-24T06:14:58;1.85;;;0.88;;
30743;SDS011;17486;46.738;7.622;2022-12-24T06:17:24;2.53;;;0.85;;
30743;SDS011;17486;46.738;7.622;2022-12-24T06:19:49;2.90;;;0.70;;
30743;SDS011;17486;46.738;7.622;2022-12-24T06:22:14;1.08;;;0.80;;
30743;SDS011;17486;46.738;7.622;2022-12-24T06:24:40;1.13;;;0.68;;
30743;SDS011;17486;46.738;7.622;2022-12-24T06:27:05;0.68;;;0.60;;
30743;SDS011;17486;46.738;7.622;2022-12-24T06:29:31;0.35;;;0.35;;
30743;SDS011;17486;46.738;7.622;2022-12-24T06:31:56;0.90;;;0.70;;
30743;SDS011;17486;46.738;7.622;2022-12-24T06:34:21;0.60;;;0.60;;
30743;SDS011;17486;46.738;7.622;2022-12-24T06:36:47;0.90;;;0.60;;
30743;SDS011;17486;46.738;7.622;2022-12-24T06:39:12;1.17;;;0.68;;
30743;SDS011;17486;46.738;7.622;2022-12-24T06:41:38;0.60;;;0.40;;
30743;SDS011;17486;46.738;7.622;2022-12-24T06:44:03;0.90;;;0.60;;
30743;SDS011;17486;46.738;7.622;2022-12-24T06:46:29;0.75;;;0.65;;
30743;SDS011;17486;46.738;7.622;2022-12-24T06:48:54;2.03;;;1.20;;
30743;SDS011;17486;46.738;7.622;2022-12-24T06:51:20;1.85;;;1.00;;
30743;SDS011;17486;46.738;7.622;2022-12-24T06:53:46;2.70;;;1.20;;
30743;SDS011;17486;46.738;7.622;2022-12-24T06:56:14;1.67;;;1.00;;
30743;SDS011;17486;46.738;7.622;2022-12-24T06:58:40;0.75;;;0.75;;
30743;SDS011;17486;46.738;7.622;2022-12-24T07:01:06;1.30;;;0.88;;
30743;SDS011;17486;46.738;7.622;2022-12-24T07:03:33;1.80;;;0.77;;
30743;SDS011;17486;46.738;7.622;2022-12-24T07:05:59;0.70;;;0.50;;
30743;SDS011;17486;46.738;7.622;2022-12-24T07:08:24;0.95;;;0.65;;
30743;SDS011;17486;46.738;7.622;2022-12-24T07:10:50;1.48;;;0.60;;
30743;SDS011;17486;46.738;7.622;2022-12-24T07:13:17;1.40;;;0.70;;
30743;SDS011;17486;46.738;7.622;2022-12-24T07:15:42;0.82;;;0.60;;
30743;SDS011;17486;46.738;7.622;2022-12-24T07:18:08;2.78;;;0.50;;
30743;SDS011;17486;46.738;7.622;2022-12-24T07:20:33;1.52;;;1.00;;
30743;SDS011;17486;46.738;7.622;2022-12-24T07:22:59;1.85;;;1.00;;
30743;SDS011;17486;46.738;7.622;2022-12-24T07:25:24;2.60;;;0.75;;
30743;SDS011;17486;46.738;7.622;2022-12-24T07:27:50;1.00;;;0.85;;
30743;SDS011;17486;46.738;7.622;2022-12-24T07:30:15;1.33;;;0.80;;
30743;SDS011;17486;46.738;7.622;2022-12-24T07:32:41;1.60;;;0.75;;
30743;SDS011;17486;46.738;7.622;2022-12-24T07:35:06;1.15;;;0.85;;
30743;SDS011;17486;46.738;7.622;2022-12-24T07:37:32;0.85;;;0.80;;
30743;SDS011;17486;46.738;7.622;2022-12-24T07:39:57;0.77;;;0.77;;
30743;SDS011;17486;46.738;7.622;2022-12-24T07:42:23;2.25;;;1.23;;
30743;SDS011;17486;46.738;7.622;2022-12-24T07:44:48;1.92;;;1.05;;
30743;SDS011;17486;46.738;7.622;2022-12-24T07:47:14;1.83;;;1.50;;
30743;SDS011;17486;46.738;7.622;2022-12-24T07:49:39;2.75;;;1.40;;
30743;SDS011;17486;46.738;7.622;2022-12-24T07:52:05;1.60;;;1.23;;
30743;SDS011;17486;46.738;7.622;2022-12-24T07:54:30;1.58;;;1.13;;
30743;SDS011;17486;46.738;7.622;2022-12-24T07:56:56;2.78;;;1.17;;
30743;SDS011;17486;46.738;7.622;2022-12-24T07:59:21;2.53;;;1.05;;
30743;SDS011;17486;46.738;7.622;2022-12-24T08:01:47;1.58;;;1.10;;
30743;SDS011;17486;46.738;7.622;2022-12-24T08:04:12;2.03;;;1.08;;
30743;SDS011;17486;46.738;7.622;2022-12-24T08:06:38;1.35;;;1.00;;
30743;SDS011;17486;46.738;7.622;2022-12-24T08:09:03;1.10;;;1.00;;
30743;SDS011;17486;46.738;7.622;2022-12-24T08:11:29;1.92;;;1.40;;
30743;SDS011;17486;46.738;7.622;2022-12-24T08:13:55;2.17;;;1.33;;
30743;SDS011;17486;46.738;7.622;2022-12-24T08:16:20;2.10;;;1.40;;
30743;SDS011;17486;46.738;7.622;2022-12-24T08:18:46;1.63;;;1.15;;
30743;SDS011;17486;46.738;7.622;2022-12-24T08:21:11;1.10;;;0.90;;
30743;SDS011;17486;46.738;7.622;2022-12-24T08:23:37;2.42;;;1.20;;
30743;SDS011;17486;46.738;7.622;2022-12-24T08:26:05;2.47;;;1.30;;
30743;SDS011;17486;46.738;7.622;2022-12-24T08:28:31;1.52;;;1.20;;
30743;SDS011;17486;46.738;7.622;2022-12-24T08:30:56;3.08;;;1.60;;
30743;SDS011;17486;46.738;7.622;2022-12-24T08:33:23;3.33;;;1.42;;
30743;SDS011;17486;46.738;7.622;2022-12-24T08:35:52;2.15;;;1.60;;
30743;SDS011;17486;46.738;7.622;2022-12-24T08:38:19;1.95;;;1.48;;
30743;SDS011;17486;46.738;7.622;2022-12-24T08:40:45;1.83;;;1.40;;
30743;SDS011;17486;46.738;7.622;2022-12-24T08:43:13;1.83;;;1.00;;
30743;SDS011;17486;46.738;7.622;2022-12-24T08:45:42;1.40;;;1.20;;
30743;SDS011;17486;46.738;7.622;2022-12-24T08:48:08;2.13;;;1.20;;
30743;SDS011;17486;46.738;7.622;2022-12-24T08:50:34;47.63;;;29.90;;
30743;SDS011;17486;46.738;7.622;2022-12-24T08:53:02;83.68;;;53.65;;
30743;SDS011;17486;46.738;7.622;2022-12-24T08:55:28;39.03;;;27.63;;
30743;SDS011;17486;46.738;7.622;2022-12-24T08:57:53;13.57;;;10.02;;
30743;SDS011;17486;46.738;7.622;2022-12-24T09:00:19;5.78;;;4.32;;
30743;SDS011;17486;46.738;7.622;2022-12-24T09:02:44;2.33;;;1.77;;
30743;SDS011;17486;46.738;7.622;2022-12-24T09:05:10;2.10;;;1.50;;
30743;SDS011;17486;46.738;7.622;2022-12-24T09:07:35;3.38;;;1.58;;
30743;SDS011;17486;46.738;7.622;2022-12-24T09:10:00;2.72;;;1.40;;
30743;SDS011;17486;46.738;7.622;2022-12-24T09:12:26;1.77;;;1.33;;
30743;SDS011;17486;46.738;7.622;2022-12-24T09:14:52;1.92;;;1.38;;
30743;SDS011;17486;46.738;7.622;2022-12-24T09:17:18;1.80;;;1.30;;
30743;SDS011;17486;46.738;7.622;2022-12-24T09:19:44;2.33;;;1.45;;
30743;SDS011;17486;46.738;7.622;2022-12-24T09:22:10;1.88;;;1.77;;
30743;SDS011;17486;46.738;7.622;2022-12-24T09:24:36;2.40;;;1.80;;
30743;SDS011;17486;46.738;7.622;2022-12-24T09:27:01;2.35;;;1.85;;
30743;SDS011;17486;46.738;7.622;2022-12-24T09:29:28;2.55;;;1.70;;
30743;SDS011;17486;46.738;7.622;2022-12-24T09:31:53;1.40;;;1.30;;
30743;SDS011;17486;46.738;7.622;2022-12-24T09:34:20;2.55;;;1.58;;
30743;SDS011;17486;46.738;7.622;2022-12-24T09:36:46;2.90;;;2.08;;
30743;SDS011;17486;46.738;7.622;2022-12-24T09:39:11;26.98;;;22.00;;
30743;SDS011;17486;46.738;7.622;2022-12-24T09:44:24;81.75;;;56.10;;
30743;SDS011;17486;46.738;7.622;2022-12-24T09:47:09;90.40;;;59.83;;
30743;SDS011;17486;46.738;7.622;2022-12-24T09:49:46;102.38;;;67.25;;
30743;SDS011;17486;46.738;7.622;2022-12-24T09:52:14;58.58;;;39.67;;
30743;SDS011;17486;46.738;7.622;2022-12-24T09:54:46;20.40;;;15.05;;
30743;SDS011;17486;46.738;7.622;2022-12-24T09:57:23;8.82;;;6.00;;
30743;SDS011;17486;46.738;7.622;2022-12-24T09:59:52;4.00;;;3.00;;
30743;SDS011;17486;46.738;7.622;2022-12-24T10:02:19;3.38;;;2.03;;
30743;SDS011;17486;46.738;7.622;2022-12-24T10:04:45;3.30;;;1.70;;
30743;SDS011;17486;46.738;7.622;2022-12-24T10:07:27;1.60;;;1.40;;
30743;SDS011;17486;46.738;7.622;2022-12-24T10:12:43;1.25;;;1.15;;
30743;SDS011;17486;46.738;7.622;2022-12-24T10:20:46;1.83;;;1.70;;
30743;SDS011;17486;46.738;7.622;2022-12-24T10:23:17;1.93;;;1.37;;
30743;SDS011;17486;46.738;7.622;2022-12-24T10:26:05;12.02;;;9.45;;
30743;SDS011;17486;46.738;7.622;2022-12-24T10:28:43;54.92;;;40.88;;
30743;SDS011;17486;46.738;7.622;2022-12-24T10:31:13;173.43;;;118.93;;
30743;SDS011;17486;46.738;7.622;2022-12-24T10:33:43;181.23;;;127.38;;
30743;SDS011;17486;46.738;7.622;2022-12-24T10:38:42;59.88;;;43.20;;
30743;SDS011;17486;46.738;7.622;2022-12-24T10:41:08;22.70;;;14.52;;
30743;SDS011;17486;46.738;7.622;2022-12-24T10:43:35;112.07;;;74.95;;
30743;SDS011;17486;46.738;7.622;2022-12-24T10:46:06;135.70;;;86.97;;
30743;SDS011;17486;46.738;7.622;2022-12-24T10:48:41;71.55;;;46.35;;
30743;SDS011;17486;46.738;7.622;2022-12-24T10:51:13;22.73;;;14.55;;
30743;SDS011;17486;46.738;7.622;2022-12-24T10:53:47;7.45;;;5.03;;
30743;SDS011;17486;46.738;7.622;2022-12-24T10:56:17;2.92;;;1.95;;
30743;SDS011;17486;46.738;7.622;2022-12-24T10:58:44;1.20;;;1.02;;
30743;SDS011;17486;46.738;7.622;2022-12-24T11:01:14;0.70;;;0.70;;
30743;SDS011;17486;46.738;7.622;2022-12-24T11:03:40;0.90;;;0.70;;
30743;SDS011;17486;46.738;7.622;2022-12-24T11:06:13;0.60;;;0.60;;
30743;SDS011;17486;46.738;7.622;2022-12-24T11:08:45;0.73;;;0.60;;
30743;SDS011;17486;46.738;7.622;2022-12-24T11:11:17;0.60;;;0.60;;
30743;SDS011;17486;46.738;7.622;2022-12-24T11:16:28;0.47;;;0.47;;
30743;SDS011;17486;46.738;7.622;2022-12-24T11:19:03;0.55;;;0.55;;
30743;SDS011;17486;46.738;7.622;2022-12-24T11:21:34;0.50;;;0.50;;
30743;SDS011;17486;46.738;7.622;2022-12-24T11:26:38;0.50;;;0.50;;
30743;SDS011;17486;46.738;7.622;2022-12-24T11:29:12;0.63;;;0.63;;
30743;SDS011;17486;46.738;7.622;2022-12-24T11:31:49;1.95;;;1.15;;
30743;SDS011;17486;46.738;7.622;2022-12-24T11:36:50;0.93;;;0.70;;
30743;SDS011;17486;46.738;7.622;2022-12-24T11:39:18;1.05;;;0.63;;
30743;SDS011;17486;46.738;7.622;2022-12-24T11:41:48;0.60;;;0.60;;
30743;SDS011;17486;46.738;7.622;2022-12-24T11:44:22;0.88;;;0.60;;
30743;SDS011;17486;46.738;7.622;2022-12-24T11:46:50;0.55;;;0.30;;
30743;SDS011;17486;46.738;7.622;2022-12-24T11:52:00;0.50;;;0.50;;
30743;SDS011;17486;46.738;7.622;2022-12-24T11:57:07;1.17;;;0.40;;
30743;SDS011;17486;46.738;7.622;2022-12-24T11:59:36;1.45;;;0.73;;
30743;SDS011;17486;46.738;7.622;2022-12-24T12:02:25;0.32;;;0.32;;
30743;SDS011;17486;46.738;7.622;2022-12-24T12:05:00;0.65;;;0.65;;
30743;SDS011;17486;46.738;7.622;2022-12-24T12:07:33;0.52;;;0.52;;
30743;SDS011;17486;46.738;7.622;2022-12-24T12:10:07;0.80;;;0.40;;
30743;SDS011;17486;46.738;7.622;2022-12-24T12:15:33;0.60;;;0.60;;
30743;SDS011;17486;46.738;7.622;2022-12-24T12:18:11;0.60;;;0.60;;
30743;SDS011;17486;46.738;7.622;2022-12-24T12:20:40;0.68;;;0.50;;
30743;SDS011;17486;46.738;7.622;2022-12-24T12:23:13;0.68;;;0.63;;
30743;SDS011;17486;46.738;7.622;2022-12-24T12:28:21;0.88;;;0.80;;
30743;SDS011;17486;46.738;7.622;2022-12-24T12:30:55;1.15;;;0.90;;
30743;SDS011;17486;46.738;7.622;2022-12-24T12:33:30;0.50;;;0.50;;
30743;SDS011;17486;46.738;7.622;2022-12-24T12:36:01;0.60;;;0.60;;
30743;SDS011;17486;46.738;7.622;2022-12-24T12:38:29;0.93;;;0.73;;
30743;SDS011;17486;46.738;7.622;2022-12-24T12:41:05;0.80;;;0.80;;
30743;SDS011;17486;46.738;7.622;2022-12-24T12:46:41;0.75;;;0.70;;
30743;SDS011;17486;46.738;7.622;2022-12-24T12:57:25;0.50;;;0.50;;
30743;SDS011;17486;46.738;7.622;2022-12-24T13:00:05;1.13;;;0.60;;
30743;SDS011;17486;46.738;7.622;2022-12-24T13:02:55;0.63;;;0.63;;
30743;SDS011;17486;46.738;7.622;2022-12-24T13:20:07;0.80;;;0.70;;
30743;SDS011;17486;46.738;7.622;2022-12-24T13:22:55;0.60;;;0.60;;
30743;SDS011;17486;46.738;7.622;2022-12-24T13:25:56;0.60;;;0.60;;
30743;SDS011;17486;46.738;7.622;2022-12-24T13:30:48;0.57;;;0.57;;
30743;SDS011;17486;46.738;7.622;2022-12-24T13:36:03;1.38;;;0.45;;
30743;SDS011;17486;46.738;7.622;2022-12-24T13:38:30;0.43;;;0.43;;
30743;SDS011;17486;46.738;7.622;2022-12-24T13:46:58;3.63;;;2.45;;
30743;SDS011;17486;46.738;7.622;2022-12-24T13:49:39;124.43;;;81.97;;
30743;SDS011;17486;46.738;7.622;2022-12-24T13:54:34;116.88;;;75.35;;
30743;SDS011;17486;46.738;7.622;2022-12-24T13:57:27;49.30;;;31.90;;
30743;SDS011;17486;46.738;7.622;2022-12-24T14:02:52;4.45;;;2.50;;
30743;SDS011;17486;46.738;7.622;2022-12-24T14:08:26;1.65;;;1.02;;
30743;SDS011;17486;46.738;7.622;2022-12-24T14:11:04;1.15;;;1.00;;
30743;SDS011;17486;46.738;7.622;2022-12-24T14:16:07;1.33;;;1.30;;
30743;SDS011;17486;46.738;7.622;2022-12-24T14:18:40;1.70;;;1.60;;
30743;SDS011;17486;46.738;7.622;2022-12-24T14:21:52;2.60;;;1.88;;
30743;SDS011;17486;46.738;7.622;2022-12-24T14:24:02;2.95;;;2.60;;
30743;SDS011;17486;46.738;7.622;2022-12-24T14:26:35;2.10;;;1.90;;
30743;SDS011;17486;46.738;7.622;2022-12-24T14:29:29;3.53;;;2.70;;
30743;SDS011;17486;46.738;7.622;2022-12-24T14:31:58;7.47;;;4.20;;
30743;SDS011;17486;46.738;7.622;2022-12-24T14:34:28;3.47;;;2.55;;
30743;SDS011;17486;46.738;7.622;2022-12-24T14:36:54;3.47;;;2.03;;
30743;SDS011;17486;46.738;7.622;2022-12-24T14:39:36;2.30;;;2.10;;
30743;SDS011;17486;46.738;7.622;2022-12-24T14:44:42;6.22;;;5.43;;
30743;SDS011;17486;46.738;7.622;2022-12-24T14:52:52;2.22;;;2.03;;
30743;SDS011;17486;46.738;7.622;2022-12-24T14:55:40;3.53;;;2.90;;
30743;SDS011;17486;46.738;7.622;2022-12-24T14:58:15;3.22;;;2.92;;
30743;SDS011;17486;46.738;7.622;2022-12-24T15:00:45;25.08;;;19.20;;
30743;SDS011;17486;46.738;7.622;2022-12-24T15:03:14;59.13;;;42.95;;
30743;SDS011;17486;46.738;7.622;2022-12-24T15:05:42;35.35;;;26.58;;
30743;SDS011;17486;46.738;7.622;2022-12-24T15:08:09;15.25;;;11.60;;
30743;SDS011;17486;46.738;7.622;2022-12-24T15:10:44;8.65;;;5.75;;
30743;SDS011;17486;46.738;7.622;2022-12-24T15:16:04;2.83;;;2.40;;
30743;SDS011;17486;46.738;7.622;2022-12-24T15:18:33;3.47;;;2.75;;
30743;SDS011;17486;46.738;7.622;2022-12-24T15:21:03;2.88;;;2.50;;
30743;SDS011;17486;46.738;7.622;2022-12-24T15:23:33;2.10;;;1.90;;
30743;SDS011;17486;46.738;7.622;2022-12-24T15:28:40;2.58;;;1.50;;
30743;SDS011;17486;46.738;7.622;2022-12-24T15:31:10;1.55;;;1.27;;
30743;SDS011;17486;46.738;7.622;2022-12-24T15:33:47;2.35;;;2.00;;
30743;SDS011;17486;46.738;7.622;2022-12-24T15:36:15;2.08;;;1.90;;
30743;SDS011;17486;46.738;7.622;2022-12-24T15:38:49;3.47;;;1.95;;
30743;SDS011;17486;46.738;7.622;2022-12-24T15:41:18;2.28;;;1.88;;
30743;SDS011;17486;46.738;7.622;2022-12-24T15:43:48;3.88;;;2.10;;
30743;SDS011;17486;46.738;7.622;2022-12-24T15:46:18;3.80;;;1.92;;
30743;SDS011;17486;46.738;7.622;2022-12-24T15:48:44;2.38;;;2.17;;
30743;SDS011;17486;46.738;7.622;2022-12-24T15:51:10;2.65;;;2.15;;
30743;SDS011;17486;46.738;7.622;2022-12-24T15:53:40;4.63;;;2.45;;
30743;SDS011;17486;46.738;7.622;2022-12-24T15:58:34;4.07;;;3.38;;
30743;SDS011;17486;46.738;7.622;2022-12-24T16:03:38;7.97;;;6.25;;
30743;SDS011;17486;46.738;7.622;2022-12-24T16:06:08;10.55;;;7.60;;
30743;SDS011;17486;46.738;7.622;2022-12-24T16:08:38;8.77;;;5.88;;
30743;SDS011;17486;46.738;7.622;2022-12-24T16:11:10;5.55;;;4.47;;
30743;SDS011;17486;46.738;7.622;2022-12-24T16:16:15;5.13;;;2.92;;
30743;SDS011;17486;46.738;7.622;2022-12-24T16:18:53;4.25;;;2.70;;
30743;SDS011;17486;46.738;7.622;2022-12-24T16:21:28;3.08;;;2.78;;
30743;SDS011;17486;46.738;7.622;2022-12-24T16:23:55;3.88;;;3.25;;
30743;SDS011;17486;46.738;7.622;2022-12-24T16:26:22;4.80;;;3.78;;
30743;SDS011;17486;46.738;7.622;2022-12-24T16:28:48;4.05;;;3.22;;
30743;SDS011;17486;46.738;7.622;2022-12-24T16:31:17;3.25;;;2.22;;
30743;SDS011;17486;46.738;7.622;2022-12-24T16:33:53;3.63;;;2.50;;
30743;SDS011;17486;46.738;7.622;2022-12-24T16:36:21;2.42;;;1.95;;
30743;SDS011;17486;46.738;7.622;2022-12-24T16:38:47;1.92;;;1.75;;
30743;SDS011;17486;46.738;7.622;2022-12-24T16:41:30;5.57;;;3.47;;
30743;SDS011;17486;46.738;7.622;2022-12-24T16:44:16;4.75;;;3.40;;
30743;SDS011;17486;46.738;7.622;2022-12-24T16:46:41;3.67;;;2.92;;
30743;SDS011;17486;46.738;7.622;2022-12-24T16:49:09;3.35;;;2.65;;
30743;SDS011;17486;46.738;7.622;2022-12-24T16:51:40;3.88;;;2.22;;
30743;SDS011;17486;46.738;7.622;2022-12-24T16:54:06;3.25;;;2.10;;
30743;SDS011;17486;46.738;7.622;2022-12-24T16:56:34;3.42;;;2.58;;
30743;SDS011;17486;46.738;7.622;2022-12-24T16:58:59;52.03;;;32.58;;